Time;durP1;ratioP1;P1;durP2;ratioP2;P2;SDS_P1;SDS_P2;PMS_P1;PMS_P2;Temp;Humidity;BMP_temperature;BMP_pressure;BME280_temperature;BME280_humidity;BME280_pressure;Samples;Min_cycle;Max_cycle;Signal;HPM_P1;HPM_P2
2022/09/17 00:00:26;;;;;;;0.60;0.60;;;17.70;99.90;;;;;;5013084;28;20306;-74
2022/09/17 00:02:55;;;;;;;0.70;0.70;;;17.60;99.90;;;;;;4991273;28;20225;-76
2022/09/17 00:05:23;;;;;;;0.70;0.70;;;17.70;99.90;;;;;;5007104;28;20193;-76
2022/09/17 00:07:51;;;;;;;0.75;0.75;;;17.70;99.90;;;;;;5002617;28;20200;-76
2022/09/17 00:10:22;;;;;;;0.57;0.57;;;17.90;99.90;;;;;;5007398;28;20697;-76
2022/09/17 00:12:49;;;;;;;1.05;0.70;;;18.00;99.90;;;;;;5005880;28;20220;-76
2022/09/17 00:15:17;;;;;;;0.50;0.50;;;18.00;99.90;;;;;;5009617;28;20235;-73
2022/09/17 00:17:46;;;;;;;0.60;0.60;;;18.10;99.90;;;;;;5008578;28;20290;-74
2022/09/17 00:20:14;;;;;;;1.75;0.75;;;18.10;99.90;;;;;;5010494;28;20216;-73
2022/09/17 00:22:41;;;;;;;0.50;0.50;;;18.10;99.90;;;;;;5010978;28;20705;-73
2022/09/17 00:25:10;;;;;;;0.60;0.60;;;18.10;99.90;;;;;;5009175;28;20574;-72
2022/09/17 00:27:38;;;;;;;0.60;0.60;;;18.10;99.90;;;;;;5009502;28;20708;-72
2022/09/17 00:30:07;;;;;;;0.63;0.63;;;18.10;99.90;;;;;;4991801;28;20243;-73
2022/09/17 00:32:34;;;;;;;0.70;0.60;;;18.10;99.90;;;;;;5009319;28;20282;-73
2022/09/17 00:35:25;;;;;;;0.80;0.80;;;18.10;99.90;;;;;;4990714;28;20644;-73
2022/09/17 00:37:52;;;;;;;0.70;0.70;;;18.10;99.90;;;;;;5008244;28;20255;-74
2022/09/17 00:40:20;;;;;;;0.80;0.80;;;18.10;99.90;;;;;;5009512;28;20224;-74
2022/09/17 00:42:48;;;;;;;0.60;0.60;;;18.10;99.90;;;;;;5009675;28;20630;-75
2022/09/17 00:45:15;;;;;;;0.60;0.60;;;18.20;99.90;;;;;;5009618;28;20211;-74
2022/09/17 00:47:46;;;;;;;0.60;0.60;;;18.10;99.90;;;;;;4971538;28;20205;-74
2022/09/17 00:50:16;;;;;;;0.60;0.60;;;18.10;99.90;;;;;;5007979;28;20238;-74
2022/09/17 00:52:47;;;;;;;0.70;0.70;;;18.00;99.90;;;;;;5008835;28;20269;-75
2022/09/17 00:55:19;;;;;;;0.60;0.60;;;18.00;99.90;;;;;;4975207;28;20208;-74
2022/09/17 00:57:49;;;;;;;0.70;0.70;;;18.00;99.90;;;;;;5009934;28;20204;-75
2022/09/17 01:00:17;;;;;;;0.93;0.70;;;18.00;99.90;;;;;;5009444;28;20685;-74
2022/09/17 01:02:44;;;;;;;0.60;0.60;;;18.00;99.90;;;;;;5008082;28;21005;-75
2022/09/17 01:05:13;;;;;;;0.50;0.50;;;18.00;99.90;;;;;;5005345;28;20246;-75
2022/09/17 01:08:05;;;;;;;0.47;0.47;;;18.00;99.90;;;;;;5006572;28;20784;-75
2022/09/17 01:10:50;;;;;;;0.60;0.60;;;18.00;99.90;;;;;;5008854;28;20204;-75
2022/09/17 01:13:26;;;;;;;1.42;0.60;;;18.00;99.90;;;;;;5008523;28;20213;-75
2022/09/17 01:16:06;;;;;;;1.20;0.60;;;17.90;99.90;;;;;;5005323;28;20200;-75
2022/09/17 01:18:46;;;;;;;0.60;0.60;;;17.80;99.90;;;;;;5010912;28;20281;-75
2022/09/17 01:21:46;;;;;;;0.60;0.60;;;17.60;99.90;;;;;;5009276;28;20255;-75
2022/09/17 01:24:46;;;;;;;0.50;0.50;;;17.40;99.90;;;;;;4995535;28;20231;-75
2022/09/17 01:27:46;;;;;;;0.50;0.50;;;17.20;99.90;;;;;;5006207;28;20197;-75
2022/09/17 01:30:22;;;;;;;0.77;0.60;;;17.10;99.90;;;;;;5009882;28;20291;-74
2022/09/17 01:32:58;;;;;;;0.50;0.50;;;17.10;99.90;;;;;;5008851;28;20282;-75
2022/09/17 01:35:33;;;;;;;0.40;0.40;;;17.10;99.90;;;;;;5008849;28;20239;-75
2022/09/17 01:38:05;;;;;;;0.52;0.52;;;17.10;99.90;;;;;;5009357;28;20223;-75
2022/09/17 01:40:41;;;;;;;0.73;0.73;;;17.10;99.90;;;;;;5012523;28;20244;-74
2022/09/17 01:43:14;;;;;;;0.77;0.70;;;17.10;99.90;;;;;;4992589;28;20220;-74
2022/09/17 01:45:46;;;;;;;0.50;0.50;;;17.20;99.90;;;;;;5010217;28;20549;-74
2022/09/17 01:48:18;;;;;;;0.60;0.60;;;17.10;99.90;;;;;;5009813;28;20247;-74
2022/09/17 01:50:52;;;;;;;0.60;0.60;;;17.20;99.90;;;;;;5009897;28;20231;-73
2022/09/17 01:53:24;;;;;;;0.50;0.50;;;17.20;99.90;;;;;;4991271;28;20958;-74
2022/09/17 01:55:54;;;;;;;0.63;0.60;;;17.20;99.90;;;;;;5012334;28;20781;-74
2022/09/17 01:58:26;;;;;;;0.65;0.65;;;17.30;99.90;;;;;;5008676;28;20223;-74
2022/09/17 02:00:58;;;;;;;0.60;0.60;;;17.20;99.90;;;;;;5012498;28;20636;-75
2022/09/17 02:03:31;;;;;;;0.50;0.50;;;17.20;99.90;;;;;;4987116;28;20232;-73
2022/09/17 02:06:04;;;;;;;0.60;0.60;;;17.10;99.90;;;;;;5013168;28;20197;-73
2022/09/17 02:08:37;;;;;;;2.83;0.50;;;17.00;99.90;;;;;;5009379;28;20247;-75
2022/09/17 02:11:08;;;;;;;0.60;0.60;;;16.80;99.90;;;;;;5009172;28;20582;-74
2022/09/17 02:13:42;;;;;;;0.65;0.65;;;16.70;99.90;;;;;;5010239;28;20220;-74
2022/09/17 02:16:16;;;;;;;0.70;0.70;;;16.60;99.90;;;;;;5010785;28;20199;-76
2022/09/17 02:18:54;;;;;;;0.60;0.60;;;16.40;99.90;;;;;;4994450;28;20247;-76
2022/09/17 02:21:30;;;;;;;0.60;0.60;;;16.30;99.90;;;;;;5011321;28;20227;-74
2022/09/17 02:24:06;;;;;;;1.13;0.50;;;16.20;99.90;;;;;;5009709;28;20282;-75
2022/09/17 02:26:37;;;;;;;0.70;0.70;;;16.00;99.90;;;;;;5008723;28;20287;-75
2022/09/17 02:29:10;;;;;;;0.60;0.60;;;15.80;99.90;;;;;;5011524;28;20220;-74
2022/09/17 02:31:41;;;;;;;0.60;0.60;;;15.70;99.90;;;;;;4993021;28;20732;-76
2022/09/17 02:34:11;;;;;;;0.70;0.70;;;15.60;99.90;;;;;;5010949;28;20216;-75
2022/09/17 02:36:39;;;;;;;0.75;0.73;;;15.40;99.90;;;;;;5007075;28;20724;-74
2022/09/17 02:39:09;;;;;;;0.68;0.68;;;15.40;99.90;;;;;;5009389;28;20316;-74
2022/09/17 02:41:45;;;;;;;0.80;0.80;;;15.30;99.90;;;;;;5011295;28;20282;-75
2022/09/17 02:44:22;;;;;;;0.82;0.82;;;15.30;99.90;;;;;;4990953;28;20242;-74
2022/09/17 02:47:05;;;;;;;0.77;0.77;;;15.20;99.90;;;;;;4991491;28;20254;-75
2022/09/17 02:49:51;;;;;;;0.82;0.82;;;15.20;99.90;;;;;;4992925;28;20786;-74
2022/09/17 02:52:30;;;;;;;1.00;0.90;;;15.10;99.90;;;;;;5009811;28;20705;-78
2022/09/17 02:55:05;;;;;;;0.80;0.80;;;15.00;99.90;;;;;;4992502;28;20709;-76
2022/09/17 02:57:40;;;;;;;0.80;0.80;;;14.80;99.90;;;;;;5008586;28;20287;-78
2022/09/17 03:00:13;;;;;;;0.85;0.85;;;14.80;99.90;;;;;;5007742;28;20262;-76
2022/09/17 03:02:44;;;;;;;0.80;0.80;;;14.80;99.90;;;;;;5009532;28;20224;-77
2022/09/17 03:05:14;;;;;;;0.80;0.80;;;14.80;99.90;;;;;;5005910;28;20666;-76
2022/09/17 03:07:42;;;;;;;1.10;1.00;;;14.70;99.90;;;;;;5008874;28;20200;-75
2022/09/17 03:10:09;;;;;;;0.90;0.90;;;14.60;99.90;;;;;;5009163;28;20220;-75
2022/09/17 03:12:37;;;;;;;0.75;0.70;;;14.50;99.90;;;;;;5008786;28;20217;-76
2022/09/17 03:15:06;;;;;;;1.00;1.00;;;14.50;99.90;;;;;;4990713;28;20310;-74
2022/09/17 03:17:33;;;;;;;0.90;0.90;;;14.40;99.90;;;;;;5008896;28;20270;-77
2022/09/17 03:20:00;;;;;;;0.80;0.80;;;14.30;99.90;;;;;;5006757;28;20231;-76
2022/09/17 03:22:29;;;;;;;0.80;0.80;;;14.30;99.90;;;;;;4985680;28;20221;-75
2022/09/17 03:24:56;;;;;;;1.00;1.00;;;14.30;99.90;;;;;;4991684;28;20224;-75
2022/09/17 03:27:23;;;;;;;0.70;0.70;;;14.30;99.90;;;;;;5007567;28;20211;-75
2022/09/17 03:29:50;;;;;;;0.80;0.80;;;14.20;99.90;;;;;;5009385;28;20220;-76
2022/09/17 03:32:18;;;;;;;0.90;0.90;;;14.20;99.90;;;;;;5005209;28;20803;-75
2022/09/17 03:34:46;;;;;;;0.80;0.80;;;14.20;99.90;;;;;;5009859;28;20709;-76
2022/09/17 03:37:13;;;;;;;1.00;0.90;;;14.30;99.90;;;;;;5007986;28;20311;-76
2022/09/17 03:39:43;;;;;;;0.85;0.85;;;14.30;99.90;;;;;;5008226;28;20212;-78
2022/09/17 03:42:11;;;;;;;1.85;1.20;;;14.20;99.90;;;;;;5007533;28;20220;-76
2022/09/17 03:44:38;;;;;;;1.08;1.08;;;14.20;99.90;;;;;;4989386;28;20274;-76
2022/09/17 03:47:05;;;;;;;0.80;0.80;;;14.20;99.90;;;;;;5008106;28;20200;-75
2022/09/17 03:49:33;;;;;;;0.98;0.98;;;14.20;99.90;;;;;;5005538;28;20216;-76
2022/09/17 03:52:00;;;;;;;0.80;0.80;;;14.10;99.90;;;;;;5008781;28;20760;-76
2022/09/17 03:54:27;;;;;;;0.90;0.90;;;14.00;99.90;;;;;;5007536;28;20228;-76
2022/09/17 03:56:56;;;;;;;0.80;0.80;;;14.00;99.90;;;;;;5009072;28;20254;-75
2022/09/17 03:59:23;;;;;;;1.00;1.00;;;14.00;99.90;;;;;;5006743;28;20343;-75
2022/09/17 04:01:50;;;;;;;1.02;1.00;;;13.90;99.90;;;;;;5008122;28;20228;-77
2022/09/17 04:04:18;;;;;;;0.88;0.88;;;14.00;99.90;;;;;;5003848;28;20216;-75
2022/09/17 04:06:45;;;;;;;0.98;0.98;;;14.00;99.90;;;;;;5008647;28;20208;-79
2022/09/17 04:09:12;;;;;;;0.90;0.90;;;13.90;99.90;;;;;;5006614;28;20274;-77
2022/09/17 04:11:39;;;;;;;0.82;0.82;;;13.90;99.90;;;;;;5008711;28;20267;-76
2022/09/17 04:14:09;;;;;;;0.90;0.90;;;13.80;99.90;;;;;;5009775;28;20219;-77
2022/09/17 04:16:36;;;;;;;0.98;0.98;;;13.70;99.90;;;;;;5008152;28;20854;-76
2022/09/17 04:19:03;;;;;;;1.00;0.90;;;13.70;99.90;;;;;;4994890;28;20756;-75
2022/09/17 04:21:31;;;;;;;1.00;1.00;;;13.70;99.90;;;;;;4991586;28;20282;-74
2022/09/17 04:23:58;;;;;;;0.80;0.80;;;13.60;99.90;;;;;;4992589;28;20282;-75
2022/09/17 04:26:27;;;;;;;1.40;1.30;;;13.50;99.90;;;;;;5008199;28;20197;-75
2022/09/17 04:28:54;;;;;;;0.90;0.90;;;13.50;99.90;;;;;;5005686;28;20704;-75
2022/09/17 04:31:23;;;;;;;0.90;0.90;;;13.50;99.90;;;;;;5033163;23;20220;-73
2022/09/17 04:33:51;;;;;;;0.90;0.90;;;13.50;99.90;;;;;;5018084;28;20223;-74
2022/09/17 04:36:18;;;;;;;1.20;1.10;;;13.50;99.90;;;;;;5016725;28;20643;-74
2022/09/17 04:38:48;;;;;;;1.15;0.95;;;13.50;99.90;;;;;;5017580;28;20226;-73
2022/09/17 04:41:15;;;;;;;1.10;1.10;;;13.40;99.90;;;;;;5016030;28;20216;-73
2022/09/17 04:43:42;;;;;;;1.10;1.10;;;13.40;99.90;;;;;;5014243;28;20225;-73
2022/09/17 04:46:09;;;;;;;1.27;1.17;;;13.30;99.90;;;;;;5011807;28;20374;-73
2022/09/17 04:48:41;;;;;;;0.88;0.88;;;13.30;99.90;;;;;;5011579;28;20224;-73
2022/09/17 04:51:08;;;;;;;1.13;1.02;;;13.40;99.90;;;;;;5017727;23;20246;-74
2022/09/17 04:53:35;;;;;;;1.00;1.00;;;13.30;99.90;;;;;;4993260;28;20225;-77
2022/09/17 04:56:03;;;;;;;1.20;1.10;;;13.20;99.90;;;;;;4994365;28;20626;-77
2022/09/17 04:58:31;;;;;;;1.33;1.23;;;13.20;99.90;;;;;;4994072;28;20227;-76
2022/09/17 05:00:59;;;;;;;0.95;0.95;;;13.10;99.90;;;;;;4994530;28;20231;-76
2022/09/17 05:03:26;;;;;;;1.02;1.02;;;13.10;99.90;;;;;;4993797;28;20691;-74
2022/09/17 05:05:55;;;;;;;1.10;1.10;;;13.00;99.90;;;;;;4995097;28;20597;-78
2022/09/17 05:08:22;;;;;;;1.20;1.10;;;13.00;99.90;;;;;;4992806;28;20217;-76
2022/09/17 05:10:51;;;;;;;1.05;1.05;;;13.10;99.90;;;;;;4990904;28;20217;-76
2022/09/17 05:13:18;;;;;;;0.90;0.90;;;13.10;99.90;;;;;;4993637;28;20270;-77
2022/09/17 05:15:45;;;;;;;0.98;0.98;;;13.20;99.90;;;;;;4994225;28;20364;-76
2022/09/17 05:18:12;;;;;;;1.88;1.00;;;13.10;99.90;;;;;;4997100;28;20228;-77
2022/09/17 05:20:40;;;;;;;1.00;1.00;;;13.10;99.90;;;;;;4997095;28;20220;-76
2022/09/17 05:23:08;;;;;;;1.00;1.00;;;13.00;99.90;;;;;;4996151;28;20264;-77
2022/09/17 05:25:35;;;;;;;0.95;0.95;;;13.00;99.90;;;;;;4996031;28;20213;-76
2022/09/17 05:28:03;;;;;;;0.90;0.90;;;13.00;99.90;;;;;;4999178;28;20224;-77
2022/09/17 05:30:30;;;;;;;0.90;0.90;;;13.10;99.90;;;;;;4996309;28;20225;-77
2022/09/17 05:33:01;;;;;;;1.52;1.17;;;13.10;99.90;;;;;;4993223;28;20284;-77
2022/09/17 05:35:28;;;;;;;1.00;1.00;;;13.10;99.90;;;;;;4995253;28;20208;-77
2022/09/17 05:37:59;;;;;;;1.33;1.23;;;13.10;99.90;;;;;;4994148;28;20205;-77
2022/09/17 05:40:28;;;;;;;1.33;1.10;;;13.00;99.90;;;;;;4994794;28;20295;-76
2022/09/17 05:42:58;;;;;;;0.90;0.90;;;13.00;99.90;;;;;;4998118;28;20225;-76
2022/09/17 05:45:26;;;;;;;1.77;1.20;;;13.10;99.90;;;;;;4994218;28;20193;-76
2022/09/17 05:47:55;;;;;;;0.80;0.80;;;13.20;99.90;;;;;;4988707;28;20197;-76
2022/09/17 05:50:23;;;;;;;1.10;1.10;;;13.20;99.90;;;;;;4993738;28;20235;-76
2022/09/17 05:52:50;;;;;;;1.10;1.10;;;13.20;99.90;;;;;;4993024;28;20217;-76
2022/09/17 05:55:18;;;;;;;0.90;0.90;;;13.10;99.90;;;;;;4996524;28;20663;-76
2022/09/17 05:57:48;;;;;;;1.20;1.10;;;13.10;99.90;;;;;;4993323;28;20294;-77
2022/09/17 06:00:16;;;;;;;0.80;0.80;;;13.20;99.90;;;;;;4994285;28;20247;-76
2022/09/17 06:02:43;;;;;;;0.93;0.93;;;13.20;99.90;;;;;;4994155;28;20216;-77
2022/09/17 06:05:11;;;;;;;1.10;1.10;;;13.20;99.90;;;;;;4995658;28;20205;-76
2022/09/17 06:07:38;;;;;;;2.08;1.20;;;13.20;99.90;;;;;;4993751;28;20205;-77
2022/09/17 06:10:07;;;;;;;1.00;1.00;;;13.10;99.90;;;;;;4996045;28;20717;-76
2022/09/17 06:12:35;;;;;;;1.10;1.10;;;13.00;99.90;;;;;;4996037;28;20201;-75
2022/09/17 06:15:04;;;;;;;0.90;0.90;;;13.00;99.90;;;;;;4992667;28;20220;-76
2022/09/17 06:17:34;;;;;;;1.15;1.15;;;13.10;99.90;;;;;;4996363;28;20201;-76
2022/09/17 06:20:01;;;;;;;1.10;1.10;;;13.20;99.90;;;;;;4992471;28;20227;-76
2022/09/17 06:22:28;;;;;;;1.10;1.10;;;13.30;99.90;;;;;;4995913;28;20699;-76
2022/09/17 06:24:55;;;;;;;1.00;1.00;;;13.20;99.90;;;;;;4995795;28;20224;-76
2022/09/17 06:27:22;;;;;;;1.20;1.20;;;13.10;99.90;;;;;;4992684;28;20439;-76
2022/09/17 06:29:49;;;;;;;1.85;1.42;;;12.90;99.90;;;;;;4992780;28;20227;-75
2022/09/17 06:32:18;;;;;;;1.35;1.25;;;12.70;99.90;;;;;;4991429;28;20217;-75
2022/09/17 06:34:49;;;;;;;1.10;1.10;;;12.60;99.90;;;;;;4997313;28;20252;-76
2022/09/17 06:37:16;;;;;;;1.17;1.10;;;12.60;99.90;;;;;;4993455;28;20197;-75
2022/09/17 06:39:44;;;;;;;1.05;1.05;;;12.50;99.90;;;;;;4990956;28;20313;-76
2022/09/17 06:42:11;;;;;;;1.10;1.10;;;12.40;99.90;;;;;;4992004;28;20220;-76
2022/09/17 06:44:39;;;;;;;1.08;1.08;;;12.40;99.90;;;;;;4993441;28;20224;-76
2022/09/17 06:47:06;;;;;;;1.30;1.30;;;12.50;99.90;;;;;;4992690;28;20618;-76
2022/09/17 06:49:35;;;;;;;1.00;1.00;;;12.60;99.90;;;;;;4997543;28;20212;-76
2022/09/17 06:52:04;;;;;;;1.00;1.00;;;12.60;99.90;;;;;;4992433;28;20375;-75
2022/09/17 06:54:31;;;;;;;1.08;1.08;;;12.50;99.90;;;;;;4993325;28;20212;-75
2022/09/17 06:56:58;;;;;;;1.00;1.00;;;12.40;99.90;;;;;;4991286;28;20300;-76
2022/09/17 06:59:27;;;;;;;0.82;0.82;;;12.40;99.90;;;;;;4992020;28;20594;-75
2022/09/17 07:01:54;;;;;;;1.00;1.00;;;12.30;99.90;;;;;;4989839;28;20637;-75
2022/09/17 07:04:21;;;;;;;1.10;1.10;;;12.30;99.90;;;;;;4991488;28;20295;-76
2022/09/17 07:06:50;;;;;;;1.30;1.27;;;12.30;99.90;;;;;;4993478;28;20193;-75
2022/09/17 07:09:17;;;;;;;1.13;1.10;;;12.30;99.90;;;;;;4995597;28;20225;-75
2022/09/17 07:11:44;;;;;;;0.95;0.95;;;12.50;99.90;;;;;;4991417;28;20594;-75
2022/09/17 07:14:11;;;;;;;1.00;1.00;;;12.60;99.90;;;;;;4989129;28;20766;-75
2022/09/17 07:16:38;;;;;;;1.20;1.20;;;12.80;99.90;;;;;;4989916;28;20198;-75
2022/09/17 07:19:05;;;;;;;1.00;1.00;;;12.90;99.90;;;;;;4990795;28;20221;-75
2022/09/17 07:21:33;;;;;;;1.20;1.20;;;13.00;99.90;;;;;;4995060;28;20220;-75
2022/09/17 07:24:02;;;;;;;1.05;1.05;;;13.10;99.90;;;;;;4990833;28;20595;-75
2022/09/17 07:26:29;;;;;;;1.08;1.08;;;13.10;99.90;;;;;;4990065;28;20221;-75
2022/09/17 07:28:56;;;;;;;1.20;1.20;;;13.20;99.90;;;;;;4994345;28;20726;-76
2022/09/17 07:31:24;;;;;;;1.20;1.20;;;13.20;99.90;;;;;;4993857;28;20217;-75
2022/09/17 07:33:51;;;;;;;1.23;1.23;;;13.20;99.90;;;;;;4989975;28;20319;-76
2022/09/17 07:36:18;;;;;;;1.10;1.10;;;13.00;99.90;;;;;;4989651;28;20589;-75
2022/09/17 07:38:45;;;;;;;1.30;1.30;;;13.00;99.90;;;;;;4991090;28;20641;-76
2022/09/17 07:41:15;;;;;;;1.00;1.00;;;13.00;99.90;;;;;;4996495;28;20220;-76
2022/09/17 07:43:43;;;;;;;1.10;1.10;;;12.90;99.90;;;;;;5000123;28;20224;-75
2022/09/17 07:46:14;;;;;;;1.52;0.93;;;12.90;99.90;;;;;;4989118;28;20207;-75
2022/09/17 07:48:50;;;;;;;1.20;1.20;;;12.70;99.90;;;;;;4990143;28;20225;-76
2022/09/17 07:51:18;;;;;;;1.00;1.00;;;12.50;99.90;;;;;;4994116;28;20231;-75
2022/09/17 07:53:46;;;;;;;1.00;1.00;;;12.50;99.90;;;;;;4992470;28;20221;-74
2022/09/17 07:56:15;;;;;;;1.08;1.05;;;12.60;99.90;;;;;;4989517;28;20232;-75
2022/09/17 07:58:42;;;;;;;1.13;1.13;;;12.80;99.90;;;;;;4991231;28;20701;-75
2022/09/17 08:01:10;;;;;;;1.10;1.10;;;12.80;99.90;;;;;;4993016;28;20216;-76
2022/09/17 08:03:39;;;;;;;1.10;1.10;;;12.90;99.90;;;;;;4992306;28;20753;-76
2022/09/17 08:06:08;;;;;;;1.10;1.10;;;13.00;99.90;;;;;;4991149;28;20622;-76
2022/09/17 08:08:37;;;;;;;1.00;1.00;;;13.20;99.90;;;;;;4992350;28;20275;-75
2022/09/17 08:11:05;;;;;;;1.35;1.10;;;13.30;99.90;;;;;;4991692;28;20215;-75
2022/09/17 08:13:34;;;;;;;1.00;1.00;;;13.30;99.90;;;;;;4991481;28;20230;-75
2022/09/17 08:16:02;;;;;;;1.00;1.00;;;13.30;99.90;;;;;;4995903;28;20568;-75
2022/09/17 08:18:30;;;;;;;1.10;1.10;;;13.20;99.90;;;;;;4994253;28;20631;-73
2022/09/17 08:20:58;;;;;;;1.10;1.10;;;13.30;99.90;;;;;;4988923;28;20726;-74
2022/09/17 08:23:25;;;;;;;1.95;1.13;;;13.50;99.90;;;;;;4993639;28;20314;-74
2022/09/17 08:25:54;;;;;;;0.90;0.90;;;13.30;99.90;;;;;;4989880;28;20209;-75
2022/09/17 08:28:24;;;;;;;1.00;1.00;;;13.20;99.90;;;;;;4992708;28;20598;-75
2022/09/17 08:30:53;;;;;;;1.38;1.25;;;13.10;99.90;;;;;;4989486;28;20229;-75
2022/09/17 08:33:21;;;;;;;1.17;1.17;;;13.20;99.90;;;;;;4984902;28;20235;-75
2022/09/17 08:35:52;;;;;;;1.20;1.20;;;13.50;99.90;;;;;;4989869;28;20216;-75
2022/09/17 08:38:20;;;;;;;1.27;1.20;;;13.80;99.90;;;;;;4996151;28;20248;-76
2022/09/17 08:41:00;;;;;;;4.30;1.23;;;14.00;99.90;;;;;;4997882;28;20228;-76
2022/09/17 08:43:28;;;;;;;1.30;1.10;;;14.30;99.90;;;;;;4994646;28;20216;-75
2022/09/17 08:45:58;;;;;;;1.20;1.10;;;14.50;99.90;;;;;;4998560;28;20196;-77
2022/09/17 08:48:28;;;;;;;1.30;1.30;;;14.60;99.90;;;;;;4997643;28;20224;-75
2022/09/17 08:50:55;;;;;;;1.40;1.30;;;14.60;99.90;;;;;;4996436;28;20241;-75
2022/09/17 08:53:38;;;;;;;1.40;1.30;;;14.50;99.90;;;;;;4997297;28;20205;-75
2022/09/17 08:56:13;;;;;;;1.67;1.30;;;14.60;99.90;;;;;;4994481;28;20544;-75
2022/09/17 08:59:07;;;;;;;1.13;0.90;;;14.50;99.90;;;;;;4995057;28;20239;-76
2022/09/17 09:01:42;;;;;;;2.60;1.08;;;14.60;99.90;;;;;;4991486;28;20221;-74
2022/09/17 09:04:35;;;;;;;1.75;1.08;;;14.70;99.90;;;;;;4994024;28;20703;-75
2022/09/17 09:07:07;;;;;;;1.23;1.23;;;14.90;99.90;;;;;;4995058;28;20197;-76
2022/09/17 09:09:38;;;;;;;2.47;2.28;;;15.10;99.90;;;;;;4989937;28;20225;-75
2022/09/17 09:12:11;;;;;;;1.77;1.67;;;15.20;99.90;;;;;;4993769;28;20231;-73
2022/09/17 09:14:48;;;;;;;1.67;1.58;;;15.20;99.90;;;;;;4990525;28;20223;-73
2022/09/17 09:17:21;;;;;;;1.30;1.30;;;15.20;99.90;;;;;;4992691;28;20204;-75
2022/09/17 09:19:49;;;;;;;2.22;1.30;;;15.40;99.90;;;;;;4995335;28;20221;-75
2022/09/17 09:22:34;;;;;;;1.80;1.17;;;15.40;99.90;;;;;;4993943;28;20227;-75
2022/09/17 09:25:11;;;;;;;1.30;1.20;;;15.40;99.90;;;;;;4991080;28;20216;-76
2022/09/17 09:27:47;;;;;;;1.15;1.00;;;15.50;99.90;;;;;;4994916;28;20662;-75
2022/09/17 09:30:22;;;;;;;3.65;1.40;;;15.50;99.90;;;;;;4987260;28;20240;-75
2022/09/17 09:32:58;;;;;;;1.40;1.30;;;15.40;99.90;;;;;;4994195;28;20248;-75
2022/09/17 09:35:28;;;;;;;1.33;1.23;;;15.40;99.90;;;;;;4992124;28;20193;-74
2022/09/17 09:38:01;;;;;;;1.30;1.20;;;15.30;99.90;;;;;;4992393;28;20204;-75
2022/09/17 09:40:42;;;;;;;1.20;1.10;;;15.40;99.90;;;;;;4992844;28;20227;-75
2022/09/17 09:43:18;;;;;;;1.10;1.10;;;15.60;99.90;;;;;;5000338;28;20594;-75
2022/09/17 09:46:01;;;;;;;1.13;1.13;;;15.90;99.90;;;;;;4998511;28;20537;-75
2022/09/17 09:48:38;;;;;;;1.40;1.30;;;16.40;99.90;;;;;;4996139;28;20224;-75
2022/09/17 09:51:25;;;;;;;1.10;1.10;;;17.30;99.90;;;;;;5000791;28;20228;-75
2022/09/17 09:54:07;;;;;;;1.27;1.15;;;18.10;99.90;;;;;;4995481;28;20227;-75
2022/09/17 09:56:51;;;;;;;1.27;1.17;;;18.80;99.90;;;;;;4997780;28;20671;-75
2022/09/17 09:59:19;;;;;;;1.00;1.00;;;19.20;99.90;;;;;;4998312;28;20220;-75
2022/09/17 10:01:47;;;;;;;1.17;1.17;;;19.30;99.90;;;;;;5000511;28;20300;-75
2022/09/17 10:04:19;;;;;;;1.10;1.10;;;19.20;99.90;;;;;;5001073;28;20233;-75
2022/09/17 10:06:48;;;;;;;1.10;0.85;;;19.10;99.90;;;;;;4999192;28;20212;-75
2022/09/17 10:09:16;;;;;;;1.30;1.20;;;19.10;99.90;;;;;;5002954;28;20217;-75
2022/09/17 10:11:59;;;;;;;0.80;0.80;;;19.30;99.90;;;;;;5000889;28;20707;-75
2022/09/17 10:14:28;;;;;;;1.10;1.00;;;19.40;99.90;;;;;;4998132;28;20271;-74
2022/09/17 10:17:19;;;;;;;1.75;1.13;;;19.40;99.90;;;;;;5002542;28;20208;-76
2022/09/17 10:20:13;;;;;;;0.80;0.80;;;19.60;99.90;;;;;;4997332;28;20220;-75
2022/09/17 10:22:43;;;;;;;0.90;0.90;;;19.70;99.90;;;;;;4999516;28;20231;-75
2022/09/17 10:25:25;;;;;;;0.80;0.80;;;19.70;99.90;;;;;;5001060;28;20232;-75
2022/09/17 10:27:53;;;;;;;1.10;1.10;;;19.80;99.90;;;;;;4994182;28;20200;-76
2022/09/17 10:30:20;;;;;;;1.00;1.00;;;19.90;99.90;;;;;;5001425;28;21023;-75
2022/09/17 10:33:15;;;;;;;0.90;0.90;;;20.10;99.90;;;;;;5002976;28;20201;-77
2022/09/17 10:35:56;;;;;;;0.95;0.95;;;20.30;99.90;;;;;;4996812;28;20205;-75
2022/09/17 10:38:35;;;;;;;0.85;0.85;;;20.30;99.90;;;;;;4997708;28;20733;-74
2022/09/17 10:41:14;;;;;;;0.82;0.82;;;20.30;99.90;;;;;;4997942;28;20220;-75
2022/09/17 10:43:42;;;;;;;0.70;0.70;;;20.10;99.90;;;;;;4997182;28;20235;-75
2022/09/17 10:46:14;;;;;;;0.80;0.80;;;20.00;99.90;;;;;;4996144;28;20208;-75
2022/09/17 10:48:44;;;;;;;1.27;1.15;;;20.10;99.90;;;;;;4995570;28;20296;-75
2022/09/17 10:51:22;;;;;;;0.75;0.70;;;20.10;99.90;;;;;;5012704;22;20318;-70
2022/09/17 10:54:05;;;;;;;1.42;1.00;;;19.90;99.90;;;;;;5008404;28;20270;-70
2022/09/17 10:56:36;;;;;;;1.05;0.88;;;19.50;99.90;;;;;;5005765;28;20238;-70
2022/09/17 10:59:22;;;;;;;0.80;0.80;;;19.50;99.90;;;;;;5009304;28;20308;-71
2022/09/17 11:02:00;;;;;;;1.27;0.85;;;19.70;99.90;;;;;;5009158;28;20208;-71
2022/09/17 11:04:41;;;;;;;0.70;0.70;;;20.00;99.90;;;;;;5027921;28;20220;-71
2022/09/17 11:10:12;;;;;;;0.70;0.70;;;20.30;99.90;;;;;;5084672;27;20582;-71
2022/09/17 11:13:06;;;;;;;0.73;0.73;;;20.30;99.90;;;;;;5064243;28;20221;-70
2022/09/17 11:15:57;;;;;;;0.60;0.60;;;20.70;99.90;;;;;;5045090;28;20683;-72
2022/09/17 11:18:36;;;;;;;0.88;0.80;;;21.10;99.90;;;;;;5044359;28;20218;-69
2022/09/17 11:21:36;;;;;;;1.23;0.90;;;21.40;99.90;;;;;;5046528;28;20197;-69
2022/09/17 11:24:36;;;;;;;0.70;0.70;;;21.50;99.90;;;;;;5040485;28;20281;-68
2022/09/17 11:27:15;;;;;;;5.57;1.65;;;21.40;99.90;;;;;;5034224;28;20207;-68
2022/09/17 11:30:08;;;;;;;2.05;1.20;;;21.20;99.90;;;;;;5035502;28;20273;-69
2022/09/17 11:33:14;;;;;;;1.30;1.20;;;21.30;99.90;;;;;;5031866;28;20279;-69
2022/09/17 11:35:46;;;;;;;1.60;0.90;;;21.60;99.90;;;;;;5023726;28;20246;-68
2022/09/17 11:38:20;;;;;;;1.00;1.00;;;21.60;99.90;;;;;;5031929;28;20226;-68
2022/09/17 11:40:50;;;;;;;1.00;0.90;;;21.80;99.90;;;;;;5045129;28;20638;-68
2022/09/17 11:43:26;;;;;;;0.98;0.90;;;21.60;99.90;;;;;;5044004;28;20248;-68
2022/09/17 11:46:02;;;;;;;0.75;0.75;;;21.30;99.90;;;;;;5047787;28;20222;-69
2022/09/17 11:48:36;;;;;;;0.70;0.70;;;21.00;99.90;;;;;;5041915;28;20593;-69
2022/09/17 11:51:08;;;;;;;0.73;0.73;;;20.80;99.90;;;;;;5045853;28;20463;-68
2022/09/17 11:53:41;;;;;;;0.80;0.80;;;21.00;99.90;;;;;;5044718;28;20229;-69
2022/09/17 11:56:17;;;;;;;0.70;0.70;;;21.40;99.90;;;;;;5042899;28;20214;-72
2022/09/17 11:58:49;;;;;;;0.50;0.50;;;21.70;99.90;;;;;;5044375;28;20226;-72
2022/09/17 12:01:31;;;;;;;0.60;0.60;;;21.80;99.90;;;;;;5044552;28;20257;-72
2022/09/17 12:04:01;;;;;;;0.52;0.52;;;21.50;98.00;;;;;;5041136;28;20300;-72
2022/09/17 12:06:38;;;;;;;0.60;0.60;;;21.20;94.30;;;;;;5043863;28;20199;-72
2022/09/17 12:09:14;;;;;;;0.60;0.60;;;21.10;96.30;;;;;;5042595;28;20218;-71
2022/09/17 12:11:47;;;;;;;0.70;0.70;;;21.20;94.90;;;;;;5045317;28;20194;-72
2022/09/17 12:14:22;;;;;;;0.70;0.63;;;21.50;99.20;;;;;;5045800;28;20233;-72
2022/09/17 12:16:53;;;;;;;0.50;0.50;;;21.60;96.00;;;;;;5046198;28;20195;-72
2022/09/17 12:19:25;;;;;;;0.50;0.50;;;21.50;95.50;;;;;;5062195;28;20218;-72
2022/09/17 12:21:56;;;;;;;0.60;0.60;;;21.50;95.20;;;;;;5030656;28;20587;-72
2022/09/17 12:24:25;;;;;;;0.45;0.45;;;21.60;97.40;;;;;;5031339;28;20223;-72
2022/09/17 12:27:05;;;;;;;0.40;0.40;;;21.60;98.10;;;;;;5030938;28;20631;-72
2022/09/17 12:30:08;;;;;;;0.60;0.60;;;21.30;98.20;;;;;;5029274;28;20226;-72
2022/09/17 12:33:04;;;;;;;0.63;0.63;;;20.90;97.80;;;;;;5046184;28;20269;-71
2022/09/17 12:36:00;;;;;;;0.40;0.40;;;20.70;97.50;;;;;;5034040;28;20383;-72
2022/09/17 12:38:41;;;;;;;1.23;0.40;;;20.50;97.30;;;;;;5030660;28;20212;-72
2022/09/17 12:41:17;;;;;;;0.52;0.52;;;20.30;98.80;;;;;;5046059;28;20192;-72
2022/09/17 12:44:01;;;;;;;0.70;0.70;;;20.40;96.50;;;;;;5046304;28;20235;-72
2022/09/17 12:46:46;;;;;;;0.60;0.60;;;20.60;96.00;;;;;;5032176;28;20199;-71
2022/09/17 12:49:43;;;;;;;0.70;0.70;;;21.00;96.20;;;;;;5030877;28;20277;-74
2022/09/17 12:52:22;;;;;;;0.60;0.60;;;21.30;93.30;;;;;;5029255;28;20262;-73
2022/09/17 12:55:08;;;;;;;0.70;0.70;;;21.50;96.40;;;;;;5029141;28;20226;-74
2022/09/17 12:57:41;;;;;;;0.75;0.60;;;21.80;97.40;;;;;;5031246;28;20214;-74
2022/09/17 13:00:12;;;;;;;0.50;0.50;;;21.90;97.10;;;;;;5030036;28;20632;-74
2022/09/17 13:02:45;;;;;;;0.68;0.50;;;21.70;96.60;;;;;;5030158;28;20287;-75
2022/09/17 13:05:47;;;;;;;0.73;0.60;;;21.10;96.30;;;;;;5029788;28;20212;-74
2022/09/17 13:08:51;;;;;;;0.70;0.70;;;20.60;93.30;;;;;;5021772;28;20650;-74
2022/09/17 13:11:52;;;;;;;0.50;0.50;;;20.30;95.20;;;;;;5039772;28;20291;-73
2022/09/17 13:14:29;;;;;;;0.50;0.50;;;20.30;95.20;;;;;;5026768;28;20650;-73
2022/09/17 13:17:02;;;;;;;1.23;0.70;;;20.30;96.50;;;;;;5031210;28;20632;-74
2022/09/17 13:19:40;;;;;;;0.63;0.63;;;20.50;97.60;;;;;;5028608;28;20220;-73